Aviation Digital Data Service (ADDS)

Output produced by TAFs form (0711 UTC 23 February 2017)
found at http://aviationweather.gov/adds/tafs/
 
KFMN 230532Z 2306/2406 22012G18KT P6SM SCT100 
     FM231000 26013G22KT P6SM BKN060 
     FM231500 26020G30KT P6SM BKN070 
     FM232000 28020G30KT P6SM SCT070